createdAt,value
2023-01-11T00:00:26.964Z,86.60
2023-01-11T00:01:53.076Z,87.06
2023-01-11T00:03:15.546Z,86.78
2023-01-11T00:04:37.592Z,86.55
2023-01-11T00:06:00.589Z,86.80
2023-01-11T00:07:22.444Z,87.38
2023-01-11T00:08:44.051Z,86.76
2023-01-11T00:10:06.258Z,85.92
2023-01-11T00:11:28.191Z,87.67
2023-01-11T00:12:50.317Z,86.73
2023-01-11T00:14:12.261Z,86.30
2023-01-11T00:15:35.011Z,86.77
2023-01-11T00:16:59.692Z,85.86
2023-01-11T00:18:21.744Z,86.52
2023-01-11T00:19:44.071Z,87.42
2023-01-11T00:21:07.423Z,86.35
2023-01-11T00:22:29.418Z,86.77
2023-01-11T00:23:51.289Z,86.90
2023-01-11T00:25:13.254Z,86.68
2023-01-11T00:26:35.243Z,87.26
2023-01-11T00:27:57.493Z,87.47
2023-01-11T00:29:19.211Z,87.08
2023-01-11T00:30:41.216Z,87.76
2023-01-11T00:32:02.931Z,87.80
2023-01-11T00:33:24.844Z,87.73
2023-01-11T00:34:47.029Z,87.98
2023-01-11T00:36:09.648Z,87.90
2023-01-11T00:37:31.549Z,87.55
2023-01-11T00:38:54.458Z,87.66
2023-01-11T00:40:16.243Z,87.27
2023-01-11T00:41:56.334Z,88.49
2023-01-11T00:43:36.552Z,89.00
2023-01-11T00:45:16.532Z,88.24
2023-01-11T00:46:56.467Z,87.10
2023-01-11T00:48:18.293Z,87.66
2023-01-11T00:49:40.552Z,87.85
2023-01-11T00:51:02.515Z,87.35
2023-01-11T00:52:24.409Z,87.83
2023-01-11T00:53:48.547Z,88.08
2023-01-11T00:55:10.355Z,88.01
2023-01-11T00:56:32.397Z,87.19
2023-01-11T00:57:54.428Z,87.77
2023-01-11T00:59:16.036Z,87.89
2023-01-11T01:00:37.932Z,87.61
2023-01-11T01:02:00.251Z,87.96
2023-01-11T01:03:21.953Z,88.36
2023-01-11T01:04:43.714Z,87.34
2023-01-11T01:06:05.693Z,87.63
2023-01-11T01:07:27.805Z,88.22
2023-01-11T01:08:49.654Z,87.03
2023-01-11T01:10:13.425Z,87.46
2023-01-11T01:11:35.036Z,87.90
2023-01-11T01:13:14.928Z,88.39
2023-01-11T01:14:37.384Z,88.23
2023-01-11T01:15:59.482Z,87.38
2023-01-11T01:17:21.125Z,87.58
2023-01-11T01:18:43.192Z,88.19
2023-01-11T01:20:05.404Z,87.63
2023-01-11T01:21:28.067Z,87.57
2023-01-11T01:22:49.788Z,87.78
2023-01-11T01:24:11.805Z,86.24
2023-01-11T01:25:36.085Z,87.62
2023-01-11T01:26:58.617Z,87.66
2023-01-11T01:28:22.258Z,87.31
2023-01-11T01:29:47.616Z,88.18
2023-01-11T01:31:09.646Z,88.14
2023-01-11T01:32:31.459Z,87.73
2023-01-11T01:33:53.314Z,87.27
2023-01-11T01:35:15.347Z,87.93
2023-01-11T01:36:37.321Z,87.50
2023-01-11T01:37:59.281Z,87.74
2023-01-11T01:39:21.188Z,87.25
2023-01-11T01:40:45.084Z,87.58
2023-01-11T01:42:12.639Z,86.93
2023-01-11T01:44:05.316Z,87.43
2023-01-11T01:45:28.886Z,86.66
2023-01-11T01:46:51.048Z,87.45
2023-01-11T01:48:16.955Z,87.20
2023-01-11T01:49:39.269Z,86.40
2023-01-11T01:51:01.512Z,86.18
2023-01-11T01:52:29.484Z,87.40
2023-01-11T01:53:56.061Z,86.77
2023-01-11T01:55:26.749Z,86.80
2023-01-11T01:57:00.423Z,85.69
2023-01-11T01:58:28.467Z,85.88
2023-01-11T01:59:52.846Z,86.92
2023-01-11T02:01:38.818Z,87.16
2023-01-11T02:03:02.230Z,87.57
2023-01-11T02:04:38.763Z,87.55
2023-01-11T02:06:00.758Z,87.17
2023-01-11T02:07:32.127Z,86.94
2023-01-11T02:09:06.651Z,86.99
2023-01-11T02:10:29.026Z,87.50
2023-01-11T02:11:51.358Z,87.44
2023-01-11T02:13:14.486Z,86.67
2023-01-11T02:14:40.137Z,86.43
2023-01-11T02:16:08.064Z,85.76
2023-01-11T02:17:32.599Z,86.08
2023-01-11T02:18:55.706Z,86.90
2023-01-11T02:20:48.214Z,87.54
2023-01-11T02:22:47.407Z,87.08
2023-01-11T02:24:46.639Z,86.38
2023-01-11T02:26:31.133Z,86.34
2023-01-11T02:28:23.717Z,86.36
2023-01-11T02:30:13.830Z,86.02
2023-01-11T02:31:55.985Z,87.09
2023-01-11T02:33:39.378Z,86.66
2023-01-11T02:35:30.153Z,87.13
2023-01-11T02:37:49.768Z,86.75
2023-01-11T02:39:32.961Z,86.35
2023-01-11T02:41:51.607Z,87.67
2023-01-11T02:43:35.193Z,86.90
2023-01-11T02:45:06.097Z,87.58
2023-01-11T02:46:38.292Z,86.42
2023-01-11T02:48:21.553Z,86.25
2023-01-11T02:49:57.092Z,86.02
2023-01-11T02:51:43.289Z,86.38
2023-01-11T02:53:44.837Z,85.96
2023-01-11T02:55:10.416Z,86.84
2023-01-11T02:56:38.273Z,87.13
2023-01-11T02:58:03.007Z,86.58
2023-01-11T02:59:31.563Z,86.48
2023-01-11T03:00:55.941Z,86.91
2023-01-11T03:02:18.214Z,86.69
2023-01-11T03:03:40.298Z,86.22
2023-01-11T03:05:02.059Z,86.50
2023-01-11T03:06:30.753Z,86.14
2023-01-11T03:08:13.998Z,86.72
2023-01-11T03:09:56.220Z,86.56
2023-01-11T03:12:24.165Z,86.15
2023-01-11T03:14:09.677Z,85.61
2023-01-11T03:16:00.419Z,85.98
2023-01-11T03:17:46.428Z,85.61
2023-01-11T03:19:23.776Z,87.23
2023-01-11T03:20:59.727Z,86.28
2023-01-11T03:22:51.170Z,87.09
2023-01-11T03:24:25.757Z,86.50
2023-01-11T03:26:18.216Z,86.23
2023-01-11T03:27:57.528Z,85.96
2023-01-11T03:29:22.200Z,87.14
2023-01-11T03:31:02.316Z,86.87
2023-01-11T03:32:47.631Z,86.59
2023-01-11T03:34:33.803Z,86.48
2023-01-11T03:36:07.607Z,85.30
2023-01-11T03:37:44.662Z,86.31
2023-01-11T03:39:29.159Z,85.32
2023-01-11T03:41:01.239Z,85.77
2023-01-11T03:42:26.168Z,85.76
2023-01-11T03:43:50.161Z,85.46
2023-01-11T03:45:11.723Z,85.65
2023-01-11T03:46:47.238Z,86.00
2023-01-11T03:48:15.316Z,85.24
2023-01-11T03:49:59.929Z,85.18
2023-01-11T03:51:43.451Z,85.42
2023-01-11T03:53:08.165Z,84.92
2023-01-11T03:54:32.847Z,85.72
2023-01-11T03:55:57.750Z,86.39
2023-01-11T03:57:35.844Z,85.97
2023-01-11T03:58:57.975Z,86.54
2023-01-11T04:00:21.735Z,86.05
2023-01-11T04:01:44.420Z,85.41
2023-01-11T04:03:06.669Z,85.40
2023-01-11T04:04:28.786Z,85.77
2023-01-11T04:05:55.028Z,86.19
2023-01-11T04:07:17.059Z,85.25
2023-01-11T04:08:38.871Z,86.44
2023-01-11T04:10:00.457Z,85.85
2023-01-11T04:11:22.143Z,86.18
2023-01-11T04:12:48.082Z,85.57
2023-01-11T04:14:09.905Z,86.54
2023-01-11T04:15:34.722Z,85.99
2023-01-11T04:16:56.420Z,85.59
2023-01-11T04:18:18.280Z,84.87
2023-01-11T04:19:40.210Z,85.47
2023-01-11T04:21:02.121Z,85.52
2023-01-11T04:22:23.816Z,85.04
2023-01-11T04:23:45.588Z,84.66
2023-01-11T04:25:08.905Z,86.01
2023-01-11T04:26:30.693Z,85.86
2023-01-11T04:27:52.821Z,85.42
2023-01-11T04:29:14.580Z,85.78
2023-01-11T04:30:37.298Z,85.89
2023-01-11T04:31:59.271Z,84.62
2023-01-11T04:33:20.949Z,85.25
2023-01-11T04:34:42.664Z,84.61
2023-01-11T04:36:09.922Z,84.50
2023-01-11T04:37:31.698Z,84.85
2023-01-11T04:38:53.322Z,84.84
2023-01-11T04:40:16.192Z,85.09
2023-01-11T04:41:57.351Z,85.51
2023-01-11T04:43:19.165Z,84.48
2023-01-11T04:44:40.762Z,85.11
2023-01-11T04:46:02.699Z,85.83
2023-01-11T04:47:25.567Z,85.92
2023-01-11T04:48:47.458Z,85.65
2023-01-11T04:50:10.150Z,85.74
2023-01-11T04:51:32.088Z,85.55
2023-01-11T04:52:54.273Z,86.04
2023-01-11T04:54:16.784Z,85.55
2023-01-11T04:55:38.957Z,85.00
2023-01-11T04:57:00.925Z,86.37
2023-01-11T04:58:22.881Z,85.70
2023-01-11T04:59:46.889Z,85.53
2023-01-11T05:01:16.925Z,85.50
2023-01-11T05:02:40.027Z,85.85
2023-01-11T05:04:01.837Z,85.24
2023-01-11T05:05:23.865Z,85.85
2023-01-11T05:06:46.001Z,86.02
2023-01-11T05:08:08.000Z,84.86
2023-01-11T05:09:29.569Z,84.72
2023-01-11T05:10:56.259Z,85.57
2023-01-11T05:12:18.096Z,85.86
2023-01-11T05:13:42.542Z,84.09
2023-01-11T05:15:04.727Z,83.88
2023-01-11T05:16:26.994Z,84.50
2023-01-11T05:17:48.698Z,84.16
2023-01-11T05:19:12.318Z,85.01
2023-01-11T05:20:33.739Z,85.32
2023-01-11T05:21:55.723Z,85.50
2023-01-11T05:23:20.301Z,85.18
2023-01-11T05:24:42.466Z,85.16
2023-01-11T05:26:09.719Z,84.48
2023-01-11T05:27:31.457Z,84.60
2023-01-11T05:28:54.465Z,85.77
2023-01-11T05:30:16.404Z,84.56
2023-01-11T05:31:39.639Z,84.28
2023-01-11T05:33:02.421Z,84.90
2023-01-11T05:34:23.820Z,84.75
2023-01-11T05:35:45.790Z,85.59
2023-01-11T05:37:07.640Z,85.69
2023-01-11T05:38:29.789Z,84.96
2023-01-11T05:39:51.567Z,85.63
2023-01-11T05:41:14.155Z,85.65
2023-01-11T05:42:35.864Z,85.55
2023-01-11T05:44:16.179Z,85.60
2023-01-11T05:45:41.193Z,85.14
2023-01-11T05:47:04.273Z,85.38
2023-01-11T05:48:26.840Z,85.01
2023-01-11T05:49:48.434Z,85.05
2023-01-11T05:51:10.314Z,85.56
2023-01-11T05:52:32.361Z,85.63
2023-01-11T05:53:54.154Z,85.59
2023-01-11T05:55:16.298Z,84.73
2023-01-11T05:56:38.513Z,85.09
2023-01-11T05:58:00.699Z,85.13
2023-01-11T05:59:22.611Z,85.01
2023-01-11T06:00:47.205Z,85.12
2023-01-11T06:02:09.113Z,84.94
2023-01-11T06:03:31.061Z,85.54
2023-01-11T06:04:54.922Z,84.69
2023-01-11T06:06:18.717Z,84.97
2023-01-11T06:07:40.715Z,84.99
2023-01-11T06:09:02.677Z,84.59
2023-01-11T06:10:24.366Z,85.56
2023-01-11T06:11:46.457Z,85.11
2023-01-11T06:13:26.999Z,85.15
2023-01-11T06:14:48.840Z,84.50
2023-01-11T06:16:12.556Z,85.42
2023-01-11T06:17:34.237Z,84.94
2023-01-11T06:18:56.116Z,85.30
2023-01-11T06:20:18.167Z,85.35
2023-01-11T06:21:39.966Z,84.66
2023-01-11T06:23:01.744Z,85.84
2023-01-11T06:24:23.505Z,85.17
2023-01-11T06:25:46.193Z,85.27
2023-01-11T06:27:07.830Z,85.00
2023-01-11T06:28:29.731Z,85.92
2023-01-11T06:29:51.309Z,85.23
2023-01-11T06:31:16.061Z,86.18
2023-01-11T06:32:38.628Z,85.20
2023-01-11T06:34:00.566Z,85.35
2023-01-11T06:35:22.376Z,84.66
2023-01-11T06:36:44.376Z,85.90
2023-01-11T06:38:07.485Z,85.86
2023-01-11T06:39:29.240Z,86.24
2023-01-11T06:41:00.419Z,85.51
2023-01-11T06:42:22.008Z,85.08
2023-01-11T06:43:43.771Z,84.63
2023-01-11T06:45:06.180Z,84.40
2023-01-11T06:46:29.069Z,85.36
2023-01-11T06:47:51.037Z,85.54
2023-01-11T06:49:13.009Z,85.48
2023-01-11T06:50:34.951Z,85.49
2023-01-11T06:51:56.735Z,86.24
2023-01-11T06:53:18.898Z,85.99
2023-01-11T06:54:40.588Z,84.58
2023-01-11T06:56:02.660Z,84.80
2023-01-11T06:57:24.443Z,85.01
2023-01-11T06:58:47.689Z,84.48
2023-01-11T07:00:11.150Z,85.00
2023-01-11T07:01:33.236Z,84.91
2023-01-11T07:02:54.954Z,85.27
2023-01-11T07:04:18.751Z,85.64
2023-01-11T07:05:42.264Z,85.79
2023-01-11T07:07:03.949Z,86.14
2023-01-11T07:08:26.260Z,86.07
2023-01-11T07:09:47.913Z,85.76
2023-01-11T07:11:09.822Z,86.04
2023-01-11T07:12:31.812Z,85.78
2023-01-11T07:13:53.664Z,85.76
2023-01-11T07:15:15.873Z,85.87
2023-01-11T07:16:37.914Z,85.72
2023-01-11T07:18:00.864Z,85.46
2023-01-11T07:19:22.841Z,85.95
2023-01-11T07:20:45.070Z,85.37
2023-01-11T07:22:07.157Z,85.78
2023-01-11T07:23:28.678Z,86.19
2023-01-11T07:24:51.113Z,85.30
2023-01-11T07:26:14.317Z,86.53
2023-01-11T07:27:36.129Z,86.70
2023-01-11T07:28:58.191Z,86.54
2023-01-11T07:30:20.305Z,86.04
2023-01-11T07:31:42.329Z,85.86
2023-01-11T07:33:06.386Z,86.45
2023-01-11T07:34:28.060Z,86.00
2023-01-11T07:35:50.291Z,86.17
2023-01-11T07:37:29.201Z,85.63
2023-01-11T07:38:51.356Z,85.96
2023-01-11T07:40:13.825Z,86.03
2023-01-11T07:41:54.430Z,86.27
2023-01-11T07:43:23.329Z,86.19
2023-01-11T07:44:45.514Z,86.04
2023-01-11T07:46:07.505Z,86.31
2023-01-11T07:47:29.161Z,86.40
2023-01-11T07:48:50.885Z,85.02
2023-01-11T07:50:12.736Z,85.19
2023-01-11T07:51:34.409Z,85.38
2023-01-11T07:52:56.010Z,85.47
2023-01-11T07:54:18.357Z,85.11
2023-01-11T07:55:40.781Z,85.16
2023-01-11T07:57:02.438Z,85.39
2023-01-11T07:58:24.776Z,85.07
2023-01-11T07:59:46.762Z,84.85
2023-01-11T08:01:08.660Z,85.59
2023-01-11T08:02:30.777Z,84.69
2023-01-11T08:03:52.774Z,85.26
2023-01-11T08:05:14.651Z,85.47
2023-01-11T08:06:36.493Z,85.42
2023-01-11T08:07:58.753Z,85.63
2023-01-11T08:09:20.386Z,84.72
2023-01-11T08:10:42.287Z,84.92
2023-01-11T08:12:22.730Z,84.41
2023-01-11T08:14:02.717Z,85.45
2023-01-11T08:15:24.169Z,84.47
2023-01-11T08:16:46.163Z,85.41
2023-01-11T08:18:08.464Z,84.57
2023-01-11T08:19:30.250Z,83.89
2023-01-11T08:20:54.949Z,84.08
2023-01-11T08:22:18.202Z,84.71
2023-01-11T08:23:39.789Z,84.31
2023-01-11T08:25:01.811Z,84.13
2023-01-11T08:26:24.648Z,84.51
2023-01-11T08:27:46.806Z,84.15
2023-01-11T08:29:08.545Z,84.06
2023-01-11T08:30:31.190Z,83.90
2023-01-11T08:31:53.155Z,83.58
2023-01-11T08:33:15.085Z,83.69
2023-01-11T08:34:37.032Z,82.84
2023-01-11T08:35:58.748Z,83.50
2023-01-11T08:37:20.681Z,83.95
2023-01-11T08:38:44.908Z,82.78
2023-01-11T08:40:07.238Z,83.11
2023-01-11T08:41:28.873Z,83.07
2023-01-11T08:42:54.032Z,82.08
2023-01-11T08:44:22.341Z,82.91
2023-01-11T08:45:55.061Z,82.77
2023-01-11T08:47:16.875Z,82.62
2023-01-11T08:48:38.697Z,82.26
2023-01-11T08:50:00.826Z,81.82
2023-01-11T08:51:23.095Z,82.43
2023-01-11T08:52:45.144Z,81.71
2023-01-11T08:54:10.578Z,82.40
2023-01-11T08:55:32.506Z,82.08
2023-01-11T08:56:55.271Z,81.13
2023-01-11T08:58:17.566Z,81.67
2023-01-11T08:59:40.724Z,81.67
2023-01-11T09:01:04.270Z,80.50
2023-01-11T09:02:26.097Z,80.79
2023-01-11T09:03:48.192Z,80.26
2023-01-11T09:05:10.200Z,79.87
2023-01-11T09:06:32.211Z,79.15
2023-01-11T09:07:57.530Z,79.15
2023-01-11T09:09:19.608Z,79.15
2023-01-11T09:10:41.297Z,79.17
2023-01-11T09:12:05.833Z,78.67
2023-01-11T09:13:28.200Z,79.09
2023-01-11T09:14:50.065Z,79.09
2023-01-11T09:16:11.764Z,79.02
2023-01-11T09:17:33.824Z,78.98
2023-01-11T09:18:55.851Z,79.08
2023-01-11T09:20:18.010Z,78.14
2023-01-11T09:21:39.703Z,78.51
2023-01-11T09:23:01.769Z,78.59
2023-01-11T09:24:23.549Z,78.63
2023-01-11T09:25:45.525Z,78.72
2023-01-11T09:27:07.419Z,78.73
2023-01-11T09:28:29.254Z,78.60
2023-01-11T09:29:51.281Z,77.90
2023-01-11T09:31:13.348Z,77.70
2023-01-11T09:32:35.281Z,77.63
2023-01-11T09:33:57.178Z,77.53
2023-01-11T09:35:19.394Z,78.33
2023-01-11T09:36:41.412Z,77.88
2023-01-11T09:38:02.942Z,77.41
2023-01-11T09:39:27.618Z,77.07
2023-01-11T09:41:36.765Z,77.38
2023-01-11T09:43:01.476Z,77.73
2023-01-11T09:44:26.793Z,77.54
2023-01-11T09:45:51.931Z,77.31
2023-01-11T09:47:16.601Z,76.98
2023-01-11T09:48:43.586Z,77.31
2023-01-11T09:50:13.158Z,77.43
2023-01-11T09:51:36.160Z,77.68
2023-01-11T09:53:07.914Z,77.74
2023-01-11T09:54:29.939Z,77.18
2023-01-11T09:55:53.019Z,77.12
2023-01-11T09:57:23.893Z,76.27
2023-01-11T09:59:20.871Z,76.49
2023-01-11T10:01:07.007Z,75.86
2023-01-11T10:02:47.229Z,75.71
2023-01-11T10:04:45.245Z,76.03
2023-01-11T10:06:36.370Z,76.09
2023-01-11T10:18:27.592Z,76.13
2023-01-11T10:18:32.239Z,76.33
2023-01-11T10:19:41.117Z,76.29
2023-01-11T10:21:28.861Z,76.61
2023-01-11T10:23:06.375Z,76.67
2023-01-11T10:24:29.481Z,77.11
2023-01-11T10:25:55.423Z,77.03
2023-01-11T10:27:36.300Z,77.30
2023-01-11T10:29:35.166Z,77.65
2023-01-11T10:30:57.891Z,77.33
2023-01-11T10:32:45.617Z,77.39
2023-01-11T10:34:30.475Z,77.22
2023-01-11T10:36:22.835Z,77.58
2023-01-11T10:38:04.141Z,77.53
2023-01-11T10:40:19.618Z,77.99
2023-01-11T10:42:05.839Z,78.01
2023-01-11T10:43:29.497Z,78.29
2023-01-11T10:45:00.513Z,78.23
2023-01-11T10:46:27.125Z,78.40
2023-01-11T10:48:04.304Z,78.25
2023-01-11T10:49:55.515Z,78.38
2023-01-11T10:51:27.125Z,78.77
2023-01-11T10:53:00.125Z,78.87
2023-01-11T10:54:27.623Z,78.57
2023-01-11T10:56:07.234Z,78.84
2023-01-11T10:58:01.519Z,79.00
2023-01-11T10:59:58.758Z,78.91
2023-01-11T11:01:32.990Z,78.43
2023-01-11T11:03:06.464Z,78.55
2023-01-11T11:04:31.197Z,78.33
2023-01-11T11:06:13.124Z,78.24
2023-01-11T11:07:50.943Z,78.34
2023-01-11T11:09:18.601Z,78.71
2023-01-11T11:11:00.886Z,79.30
2023-01-11T11:12:32.536Z,79.21
2023-01-11T11:14:17.003Z,78.92
2023-01-11T11:15:56.320Z,78.76
2023-01-11T11:17:24.283Z,78.75
2023-01-11T11:18:46.760Z,79.26
2023-01-11T11:20:15.177Z,78.96
2023-01-11T11:21:41.829Z,79.02
2023-01-11T11:23:04.050Z,78.91
2023-01-11T11:25:00.791Z,78.85
2023-01-11T11:26:27.405Z,78.67
2023-01-11T11:27:59.601Z,78.88
2023-01-11T11:29:29.247Z,79.04
2023-01-11T11:30:53.107Z,78.95
2023-01-11T11:32:30.429Z,78.94
2023-01-11T11:33:52.489Z,78.87
2023-01-11T11:35:36.438Z,78.85
2023-01-11T11:37:00.676Z,79.06
2023-01-11T11:38:30.134Z,79.00
2023-01-11T11:39:53.982Z,79.15
2023-01-11T11:41:17.531Z,78.68
2023-01-11T11:42:39.422Z,78.76
2023-01-11T11:44:15.784Z,79.25
2023-01-11T11:45:49.752Z,78.81
2023-01-11T11:47:17.992Z,78.87
2023-01-11T11:48:39.994Z,78.73
2023-01-11T11:50:41.985Z,78.74
2023-01-11T11:52:05.452Z,78.77
2023-01-11T11:53:47.256Z,78.68
2023-01-11T11:55:13.615Z,79.06
2023-01-11T11:56:41.782Z,78.98
2023-01-11T11:58:13.248Z,78.59
2023-01-11T11:59:35.110Z,78.43
2023-01-11T12:00:56.947Z,78.54
2023-01-11T12:02:31.192Z,78.75
2023-01-11T12:04:00.846Z,78.64
2023-01-11T12:05:22.769Z,78.71
2023-01-11T12:06:49.202Z,78.44
2023-01-11T12:08:16.614Z,78.39
2023-01-11T12:09:43.212Z,78.39
2023-01-11T12:11:08.175Z,78.76
2023-01-11T12:12:31.699Z,79.39
2023-01-11T12:14:10.887Z,79.14
2023-01-11T12:15:34.872Z,79.49
2023-01-11T12:16:58.978Z,79.40
2023-01-11T12:18:42.502Z,79.46
2023-01-11T12:20:24.441Z,79.54
2023-01-11T12:21:46.109Z,80.21
2023-01-11T12:23:24.323Z,79.76
2023-01-11T12:24:47.750Z,80.53
2023-01-11T12:26:22.888Z,80.43
2023-01-11T12:28:09.175Z,80.77
2023-01-11T12:29:48.296Z,81.17
2023-01-11T12:31:15.019Z,80.81
2023-01-11T12:33:09.285Z,80.69
2023-01-11T12:35:10.150Z,81.04
2023-01-11T12:36:38.043Z,81.79
2023-01-11T12:38:22.155Z,81.84
2023-01-11T12:40:10.405Z,81.26
2023-01-11T12:42:22.593Z,82.14
2023-01-11T12:43:44.270Z,82.40
2023-01-11T12:45:26.870Z,82.47
2023-01-11T12:47:04.194Z,82.27
2023-01-11T12:48:57.928Z,82.75
2023-01-11T12:52:41.429Z,82.67
2023-01-11T12:54:30.925Z,82.87
2023-01-11T12:56:11.601Z,83.23
2023-01-11T12:58:15.106Z,82.70
2023-01-11T13:00:07.696Z,83.50
2023-01-11T13:01:43.528Z,83.19
2023-01-11T13:03:53.089Z,82.99
2023-01-11T13:05:44.012Z,83.55
2023-01-11T13:07:24.468Z,83.90
2023-01-11T13:08:49.671Z,83.92
2023-01-11T13:10:11.728Z,83.81
2023-01-11T13:11:52.385Z,83.90
2023-01-11T13:13:27.000Z,83.90
2023-01-11T13:15:05.649Z,83.22
2023-01-11T13:16:58.452Z,83.41
2023-01-11T13:18:30.001Z,83.24
2023-01-11T13:20:22.550Z,83.16
2023-01-11T13:21:53.388Z,82.87
2023-01-11T13:23:36.396Z,82.63
2023-01-11T13:25:01.720Z,82.55
2023-01-11T13:26:28.975Z,82.90
2023-01-11T13:27:54.512Z,82.55
2023-01-11T13:29:43.866Z,82.27
2023-01-11T13:31:09.441Z,82.78
2023-01-11T13:32:37.509Z,83.25
2023-01-11T13:34:14.257Z,82.99
2023-01-11T13:35:50.034Z,82.67
2023-01-11T13:37:37.090Z,83.26
2023-01-11T13:39:20.864Z,82.76
2023-01-11T13:40:51.247Z,83.31
2023-01-11T13:42:29.820Z,83.10
2023-01-11T13:44:06.301Z,82.68
2023-01-11T13:45:48.378Z,83.44
2023-01-11T13:47:20.509Z,83.53
2023-01-11T13:49:00.549Z,83.42
2023-01-11T13:50:54.531Z,83.77
2023-01-11T13:52:20.613Z,84.22
2023-01-11T13:54:23.615Z,83.44
2023-01-11T13:55:57.271Z,84.35
2023-01-11T13:57:38.245Z,84.12
2023-01-11T13:59:07.614Z,84.61
2023-01-11T14:00:51.212Z,84.30
2023-01-11T14:02:41.619Z,84.41
2023-01-11T14:04:11.158Z,84.82
2023-01-11T14:05:48.372Z,84.74
2023-01-11T14:07:31.984Z,85.25
2023-01-11T14:09:18.767Z,84.92
2023-01-11T14:11:06.378Z,85.33
2023-01-11T14:12:33.983Z,85.12
2023-01-11T14:14:23.550Z,85.43
2023-01-11T14:16:01.116Z,85.38
2023-01-11T14:18:05.923Z,84.97
2023-01-11T14:19:53.134Z,85.51
2023-01-11T14:21:34.143Z,85.01
2023-01-11T14:23:14.149Z,85.06
2023-01-11T14:24:37.923Z,85.01
2023-01-11T14:26:27.179Z,85.50
2023-01-11T14:27:51.797Z,85.22
2023-01-11T14:29:25.694Z,85.02
2023-01-11T14:30:55.126Z,84.95
2023-01-11T14:32:35.418Z,84.49
2023-01-11T14:34:09.333Z,84.90
2023-01-11T14:35:52.667Z,84.54
2023-01-11T14:37:39.324Z,84.64
2023-01-11T14:39:13.006Z,85.38
2023-01-11T14:40:53.912Z,84.42
2023-01-11T14:43:00.998Z,84.87
2023-01-11T14:44:56.969Z,85.12
2023-01-11T14:46:55.654Z,84.58
2023-01-11T14:48:26.346Z,85.16
2023-01-11T14:49:50.863Z,84.88
2023-01-11T14:51:25.914Z,85.09
2023-01-11T14:52:53.663Z,85.32
2023-01-11T14:54:38.444Z,84.64
2023-01-11T14:56:00.350Z,85.02
2023-01-11T14:57:38.209Z,85.13
2023-01-11T14:59:22.649Z,85.00
2023-01-11T15:00:44.598Z,85.37
2023-01-11T15:02:07.839Z,84.95
2023-01-11T15:03:42.228Z,84.72
2023-01-11T15:05:05.951Z,84.34
2023-01-11T15:06:49.086Z,85.17
2023-01-11T15:08:13.749Z,84.86
2023-01-11T15:09:46.067Z,84.60
2023-01-11T15:11:35.227Z,85.32
2023-01-11T15:13:07.596Z,85.58
2023-01-11T15:14:32.868Z,85.15
2023-01-11T15:16:31.025Z,84.89
2023-01-11T15:18:15.291Z,84.95
2023-01-11T15:19:41.794Z,84.62
2023-01-11T15:21:07.829Z,85.48
2023-01-11T15:22:33.420Z,85.56
2023-01-11T15:23:58.839Z,84.82
2023-01-11T15:25:35.164Z,85.10
2023-01-11T15:26:59.246Z,85.25
2023-01-11T15:28:57.768Z,85.58
2023-01-11T15:30:31.562Z,85.99
2023-01-11T15:32:02.176Z,85.86
2023-01-11T15:33:25.524Z,85.63
2023-01-11T15:34:49.222Z,85.20
2023-01-11T15:36:11.717Z,85.54
2023-01-11T15:37:58.889Z,85.16
2023-01-11T15:39:38.406Z,85.37
2023-01-11T15:41:24.234Z,85.36
2023-01-11T15:43:10.662Z,85.31
2023-01-11T15:44:58.519Z,85.33
2023-01-11T15:46:54.243Z,86.03
2023-01-11T15:48:56.717Z,85.29
2023-01-11T15:50:36.450Z,85.26
2023-01-11T15:52:13.620Z,86.07
2023-01-11T15:54:14.965Z,85.71
2023-01-11T15:55:48.291Z,85.72
2023-01-11T15:57:44.520Z,86.56
2023-01-11T15:59:43.618Z,86.16
2023-01-11T16:01:19.472Z,86.68
2023-01-11T16:02:59.460Z,86.57
2023-01-11T16:04:28.421Z,86.84
2023-01-11T16:06:16.367Z,86.26
2023-01-11T16:08:18.644Z,86.35
2023-01-11T16:09:55.473Z,86.77
2023-01-11T16:11:38.477Z,86.36
2023-01-11T16:13:29.839Z,86.22
2023-01-11T16:15:28.461Z,86.22
2023-01-11T16:16:52.721Z,86.19
2023-01-11T16:18:21.867Z,86.17
2023-01-11T16:19:46.743Z,86.06
2023-01-11T16:21:18.170Z,86.51
2023-01-11T16:22:40.357Z,85.61
2023-01-11T16:24:17.791Z,85.68
2023-01-11T16:25:42.196Z,86.28
2023-01-11T16:27:06.216Z,85.67
2023-01-11T16:28:28.862Z,86.04
2023-01-11T16:29:51.840Z,86.01
2023-01-11T16:31:13.784Z,86.09
2023-01-11T16:32:35.840Z,86.30
2023-01-11T16:34:07.231Z,85.81
2023-01-11T16:35:28.851Z,86.80
2023-01-11T16:36:50.798Z,86.04
2023-01-11T16:38:22.506Z,86.50
2023-01-11T16:39:44.556Z,86.13
2023-01-11T16:41:08.871Z,86.02
2023-01-11T16:42:35.612Z,86.22
2023-01-11T16:44:04.909Z,86.44
2023-01-11T16:45:39.672Z,85.81
2023-01-11T16:47:19.000Z,86.50
2023-01-11T16:48:40.623Z,85.37
2023-01-11T16:50:14.782Z,85.50
2023-01-11T16:51:36.837Z,85.99
2023-01-11T16:53:01.069Z,86.15
2023-01-11T16:54:31.556Z,86.47
2023-01-11T16:56:05.563Z,86.23
2023-01-11T16:57:39.464Z,86.65
2023-01-11T16:59:21.555Z,86.12
2023-01-11T17:00:52.333Z,85.64
2023-01-11T17:02:32.908Z,86.43
2023-01-11T17:03:55.795Z,86.28
2023-01-11T17:05:23.646Z,86.13
2023-01-11T17:06:45.340Z,85.81
2023-01-11T17:08:27.648Z,86.86
2023-01-11T17:09:49.821Z,87.13
2023-01-11T17:11:41.723Z,86.59
2023-01-11T17:13:38.379Z,86.27
2023-01-11T17:15:00.055Z,86.63
2023-01-11T17:16:32.388Z,86.41
2023-01-11T17:17:54.518Z,87.54
2023-01-11T17:19:19.168Z,86.76
2023-01-11T17:20:41.885Z,87.94
2023-01-11T17:22:14.348Z,87.38
2023-01-11T17:23:39.444Z,87.91
2023-01-11T17:25:20.096Z,87.75
2023-01-11T17:26:49.936Z,87.73
2023-01-11T17:28:18.789Z,88.15
2023-01-11T17:29:42.954Z,88.36
2023-01-11T17:31:05.030Z,87.95
2023-01-11T17:32:44.033Z,88.04
2023-01-11T17:34:18.853Z,88.30
2023-01-11T17:35:42.332Z,88.73
2023-01-11T17:37:13.080Z,88.66
2023-01-11T17:38:35.574Z,89.13
2023-01-11T17:39:58.940Z,88.50
2023-01-11T17:41:40.244Z,88.35
2023-01-11T17:43:38.182Z,88.44
2023-01-11T17:45:15.801Z,88.38
2023-01-11T17:46:39.308Z,88.51
2023-01-11T17:48:12.676Z,88.08
2023-01-11T17:49:36.905Z,87.68
2023-01-11T17:51:04.572Z,88.52
2023-01-11T17:52:27.176Z,88.28
2023-01-11T17:53:50.669Z,88.65
2023-01-11T17:55:17.387Z,88.36
2023-01-11T17:56:41.921Z,88.87
2023-01-11T17:58:19.593Z,88.25
2023-01-11T17:59:41.804Z,88.08
2023-01-11T18:01:13.824Z,88.82
2023-01-11T18:02:40.247Z,88.64
2023-01-11T18:04:02.645Z,88.67
2023-01-11T18:05:29.099Z,88.11
2023-01-11T18:07:14.904Z,89.00
2023-01-11T18:08:36.987Z,88.87
2023-01-11T18:10:02.922Z,89.29
2023-01-11T18:11:36.112Z,88.35
2023-01-11T18:12:59.470Z,89.03
2023-01-11T18:14:31.984Z,88.62
2023-01-11T18:15:54.279Z,88.75
2023-01-11T18:17:36.910Z,88.64
2023-01-11T18:18:59.177Z,89.16
2023-01-11T18:20:32.534Z,88.88
2023-01-11T18:21:55.346Z,89.16
2023-01-11T18:23:20.729Z,89.64
2023-01-11T18:24:52.717Z,88.91
2023-01-11T18:26:28.896Z,88.94
2023-01-11T18:27:51.354Z,88.24
2023-01-11T18:29:35.701Z,88.79
2023-01-11T18:31:01.882Z,89.42
2023-01-11T18:32:24.928Z,89.37
2023-01-11T18:33:46.891Z,88.25
2023-01-11T18:35:20.119Z,88.74
2023-01-11T18:36:42.473Z,88.88
2023-01-11T18:38:26.739Z,88.60
2023-01-11T18:39:49.960Z,89.15
2023-01-11T18:41:32.605Z,89.12
2023-01-11T18:42:54.640Z,88.98
2023-01-11T18:44:16.417Z,88.12
2023-01-11T18:45:38.538Z,88.46
2023-01-11T18:47:00.499Z,88.75
2023-01-11T18:48:22.491Z,88.97
2023-01-11T18:49:44.934Z,89.29
2023-01-11T18:51:07.013Z,87.93
2023-01-11T18:52:29.600Z,88.04
2023-01-11T18:53:51.334Z,87.61
2023-01-11T18:55:14.869Z,87.99
2023-01-11T18:56:36.911Z,87.85
2023-01-11T18:57:59.181Z,88.10
2023-01-11T18:59:20.831Z,87.80
2023-01-11T19:00:43.125Z,88.71
2023-01-11T19:02:27.882Z,88.38
2023-01-11T19:03:50.236Z,88.61
2023-01-11T19:05:14.430Z,87.60
2023-01-11T19:06:36.344Z,88.30
2023-01-11T19:07:58.273Z,87.58
2023-01-11T19:09:20.060Z,87.38
2023-01-11T19:10:41.861Z,87.92
2023-01-11T19:12:04.204Z,87.61
2023-01-11T19:13:25.923Z,87.76
2023-01-11T19:14:47.845Z,88.00
2023-01-11T19:16:09.883Z,86.96
2023-01-11T19:17:32.862Z,87.04
2023-01-11T19:18:55.573Z,87.70
2023-01-11T19:20:17.634Z,87.42
2023-01-11T19:21:39.125Z,87.01
2023-01-11T19:23:01.197Z,88.08
2023-01-11T19:24:23.090Z,87.14
2023-01-11T19:25:45.324Z,87.58
2023-01-11T19:27:07.186Z,87.24